Time;durP1;ratioP1;P1;durP2;ratioP2;P2;SDS_P1;SDS_P2;PMS_P1;PMS_P2;Temp;Humidity;BMP_temperature;BMP_pressure;BME280_temperature;BME280_humidity;BME280_pressure;Samples;Min_cycle;Max_cycle;Signal;HPM_P1;HPM_P2
2022/05/10 00:02:16;;;;;;;13.57;11.70;;;;;;;18.06;65.32;101813.69;4911858;29;20048;-83
2022/05/10 00:04:50;;;;;;;17.52;12.00;;;;;;;18.39;65.22;101881.13;4912118;29;20091;-83
2022/05/10 00:07:18;;;;;;;14.05;11.60;;;;;;;18.35;65.58;101866.31;4912394;29;20522;-83
2022/05/10 00:09:45;;;;;;;12.68;11.38;;;;;;;18.35;65.29;101866.31;4912292;29;20063;-82
2022/05/10 00:12:12;;;;;;;13.25;11.80;;;;;;;18.26;65.30;101851.13;4912283;29;20292;-83
2022/05/10 00:14:39;;;;;;;15.30;12.05;;;;;;;18.04;65.68;101815.69;4927925;29;20518;-83
2022/05/10 00:17:06;;;;;;;13.48;12.05;;;;;;;18.23;65.23;101848.72;4912540;29;20056;-82
2022/05/10 00:19:33;;;;;;;16.10;12.10;;;;;;;17.81;65.92;101779.56;4914515;29;20139;-84
2022/05/10 00:22:00;;;;;;;14.32;12.00;;;;;;;18.00;65.97;101813.47;4914249;29;20048;-83
2022/05/10 00:24:26;;;;;;;13.70;11.23;;;;;;;16.80;65.67;101622.28;4913037;29;20159;-83
2022/05/10 00:26:55;;;;;;;14.55;11.43;;;;;;;17.90;65.40;101808.19;4928531;29;20139;-84
2022/05/10 00:29:22;;;;;;;14.75;11.50;;;;;;;18.21;65.15;101848.06;4928329;29;20048;-83
2022/05/10 00:31:49;;;;;;;13.30;11.10;;;;;;;18.04;64.74;101815.69;4929245;29;20454;-83
2022/05/10 00:34:17;;;;;;;13.50;11.75;;;;;;;18.27;64.49;101847.41;4913907;29;20044;-82
2022/05/10 00:36:45;;;;;;;15.27;12.00;;;;;;;18.21;65.50;101851.59;4927841;29;20552;-83
2022/05/10 00:39:14;;;;;;;13.25;11.93;;;;;;;17.12;64.84;101663.84;4911755;29;20138;-83
2022/05/10 00:41:44;;;;;;;13.82;11.55;;;;;;;18.12;65.26;101847.97;4927215;29;20055;-84
2022/05/10 00:44:22;;;;;;;13.32;11.35;;;;;;;18.06;65.61;101832.50;4913323;29;20107;-84
2022/05/10 00:47:16;;;;;;;15.27;11.75;;;;;;;18.06;65.28;101832.50;4912104;29;20048;-84
2022/05/10 00:50:07;;;;;;;14.57;11.43;;;;;;;17.72;65.26;101776.78;4927857;29;20052;-82
2022/05/10 00:52:48;;;;;;;13.25;11.45;;;;;;;18.09;65.56;101842.09;4926901;29;20074;-82
2022/05/10 00:55:24;;;;;;;14.80;11.65;;;;;;;17.06;65.39;101672.47;4927077;29;20154;-84
2022/05/10 00:57:59;;;;;;;11.27;10.27;;;;;;;17.35;65.61;101727.75;4926902;29;20417;-84
2022/05/10 01:00:29;;;;;;;12.80;11.50;;;;;;;17.75;65.50;101796.28;4911439;29;20058;-84
2022/05/10 01:03:22;;;;;;;13.90;12.30;;;;;;;17.96;66.26;101845.16;4911068;29;20391;-83
2022/05/10 01:06:05;;;;;;;12.45;11.25;;;;;;;17.72;66.16;101811.69;4911617;29;20107;-83
2022/05/10 01:08:48;;;;;;;18.92;11.00;;;;;;;17.73;65.89;101789.19;4912323;29;20414;-83
2022/05/10 01:11:25;;;;;;;13.63;12.02;;;;;;;18.19;64.52;101842.00;4926801;29;20380;-81
2022/05/10 01:14:11;;;;;;;15.57;11.77;;;;;;;17.80;64.82;101786.78;4911186;29;20513;-83
2022/05/10 01:16:38;;;;;;;12.88;11.55;;;;;;;18.02;65.66;101839.16;4926849;29;20081;-83
2022/05/10 01:19:05;;;;;;;23.15;12.57;;;;;;;17.93;65.02;101829.34;4911106;29;20414;-81
2022/05/10 01:22:09;;;;;;;13.20;11.90;;;;;;;18.02;65.44;101846.41;4926757;29;20190;-83
2022/05/10 01:24:53;;;;;;;14.90;12.50;;;;;;;17.65;65.48;101793.66;4910880;29;20103;-82
2022/05/10 01:27:48;;;;;;;14.32;12.98;;;;;;;17.88;66.05;101839.72;4911998;29;20067;-82
2022/05/10 01:30:33;;;;;;;13.38;12.18;;;;;;;17.46;65.95;101783.91;4926622;29;20075;-82
2022/05/10 01:36:16;;;;;;;13.63;12.23;;;;;;;17.72;66.25;101827.81;4911802;29;20525;-84
2022/05/10 01:39:01;;;;;;;14.15;12.68;;;;;;;17.71;66.73;101830.63;4926300;29;20072;-85
2022/05/10 01:41:30;;;;;;;17.20;12.43;;;;;;;17.22;66.91;101752.31;4926085;29;20054;-82
2022/05/10 01:44:24;;;;;;;13.68;11.85;;;;;;;17.06;66.55;101744.91;4926321;29;20066;-83
2022/05/10 01:46:57;;;;;;;13.65;11.95;;;;;;;17.65;66.62;101831.25;4926143;29;20150;-83
2022/05/10 01:49:37;;;;;;;17.05;12.40;;;;;;;17.48;66.60;101803.41;4910552;29;20076;-83
2022/05/10 01:52:29;;;;;;;19.30;11.93;;;;;;;17.34;66.22;101771.72;4910508;29;20141;-83
2022/05/10 01:55:23;;;;;;;13.95;11.93;;;;;;;17.39;66.64;101789.03;4911577;29;20056;-83
2022/05/10 01:57:52;;;;;;;14.68;11.77;;;;;;;16.93;66.57;101717.63;4926195;29;20071;-83
2022/05/10 02:00:22;;;;;;;14.43;12.75;;;;;;;17.55;66.80;101820.59;4910018;29;20387;-83
2022/05/10 02:02:58;;;;;;;14.38;12.95;;;;;;;17.48;66.90;101808.78;4925391;29;20451;-83
2022/05/10 02:06:01;;;;;;;13.45;12.20;;;;;;;17.18;66.98;101764.31;4926157;29;20455;-83
2022/05/10 02:08:32;;;;;;;13.35;11.98;;;;;;;17.40;67.04;101817.56;4925979;29;20483;-83
2022/05/10 02:11:04;;;;;;;13.75;12.32;;;;;;;17.38;67.36;101819.56;4925854;29;20056;-84
2022/05/10 02:13:38;;;;;;;13.65;12.20;;;;;;;17.13;67.27;101775.50;4910271;29;20082;-82
2022/05/10 02:16:40;;;;;;;16.35;12.70;;;;;;;16.99;67.31;101776.00;4909932;29;20058;-84
2022/05/10 02:19:19;;;;;;;14.45;13.13;;;;;;;16.96;68.01;101776.31;4909304;29;20062;-83
2022/05/10 02:21:57;;;;;;;14.38;12.88;;;;;;;17.18;68.27;101813.47;4910962;29;20119;-83
2022/05/10 02:24:38;;;;;;;16.17;12.68;;;;;;;16.86;67.63;101761.13;4926141;29;20055;-84
2022/05/10 02:27:13;;;;;;;14.15;12.38;;;;;;;16.57;68.36;101712.97;4910201;29;20056;-83
2022/05/10 02:29:50;;;;;;;13.27;11.88;;;;;;;17.17;68.23;101811.78;4909918;29;20086;-83
2022/05/10 02:35:14;;;;;;;14.00;11.85;;;;;;;16.77;67.65;101761.13;4910850;29;20052;-84
2022/05/10 02:37:44;;;;;;;14.65;11.30;;;;;;;15.56;68.27;101565.47;4925673;29;20048;-81
2022/05/10 02:40:11;;;;;;;15.57;12.20;;;;;;;17.10;68.01;101813.38;4926717;29;20056;-84
2022/05/10 02:42:38;;;;;;;17.17;13.43;;;;;;;16.97;68.24;101794.97;4913613;29;20056;-82
2022/05/10 02:45:07;;;;;;;13.23;11.82;;;;;;;17.06;68.03;101809.28;4914045;29;20087;-83
2022/05/10 02:47:37;;;;;;;13.38;11.93;;;;;;;17.10;68.70;101816.06;4914424;29;20248;-82
2022/05/10 02:50:15;;;;;;;14.48;12.90;;;;;;;17.02;68.42;101802.56;4911741;29;20533;-84
2022/05/10 02:52:42;;;;;;;19.02;13.45;;;;;;;16.93;68.23;101806.13;4910977;29;20048;-84
2022/05/10 02:55:14;;;;;;;14.65;12.13;;;;;;;16.83;68.31;101788.25;4909512;29;20047;-84
2022/05/10 02:57:42;;;;;;;14.00;12.48;;;;;;;16.91;68.20;101797.38;4910705;29;20055;-83
2022/05/10 03:00:10;;;;;;;13.63;12.23;;;;;;;16.75;67.50;101768.47;4909592;29;20048;-81
2022/05/10 03:02:43;;;;;;;14.07;12.73;;;;;;;16.40;67.50;101709.25;4925103;29;20056;-81
2022/05/10 03:05:12;;;;;;;13.68;12.27;;;;;;;16.42;67.92;101712.63;4909278;29;20075;-84
2022/05/10 03:07:39;;;;;;;14.00;12.30;;;;;;;16.85;67.76;101780.06;4924953;29;20052;-83
2022/05/10 03:10:11;;;;;;;13.43;12.05;;;;;;;16.74;67.76;101769.47;4924726;29;20130;-84
2022/05/10 03:12:43;;;;;;;14.15;11.77;;;;;;;16.15;67.91;101672.41;4910617;29;20060;-83
2022/05/10 03:15:10;;;;;;;12.93;11.70;;;;;;;15.81;68.09;101636.28;4909147;29;20407;-84
2022/05/10 03:17:39;;;;;;;15.13;12.85;;;;;;;15.75;68.62;101617.28;4908876;29;20119;-83
2022/05/10 03:20:06;;;;;;;15.98;12.88;;;;;;;16.64;68.37;101762.31;4909160;29;20513;-82
2022/05/10 03:22:34;;;;;;;12.98;11.55;;;;;;;16.81;68.46;101800.94;4924680;29;20055;-84
2022/05/10 03:25:01;;;;;;;13.98;12.50;;;;;;;16.73;68.30;101776.69;4910097;29;20070;-84
2022/05/10 03:27:28;;;;;;;13.50;12.10;;;;;;;16.94;68.02;101799.75;4908833;29;20048;-83
2022/05/10 03:29:55;;;;;;;14.13;12.55;;;;;;;16.85;67.87;101790.78;4910483;29;20052;-84
2022/05/10 03:32:22;;;;;;;14.43;12.55;;;;;;;16.72;67.85;101768.78;4908480;29;20275;-83
2022/05/10 03:34:56;;;;;;;13.73;11.93;;;;;;;16.75;68.38;101785.44;4924262;29;20063;-83
2022/05/10 03:37:32;;;;;;;13.75;12.35;;;;;;;16.86;67.67;101804.03;4908727;29;20058;-83
2022/05/10 03:39:59;;;;;;;13.88;12.43;;;;;;;16.86;67.64;101801.34;4908839;29;20056;-84
2022/05/10 03:42:26;;;;;;;13.65;12.20;;;;;;;16.55;67.73;101765.03;4908813;29;20067;-82
2022/05/10 03:44:53;;;;;;;15.80;12.68;;;;;;;16.81;68.21;101806.31;4910454;29;20055;-82
2022/05/10 03:47:22;;;;;;;15.00;12.18;;;;;;;16.77;68.31;101804.91;4910321;29;20064;-82
2022/05/10 03:49:49;;;;;;;14.60;13.13;;;;;;;16.26;68.74;101725.78;4910372;29;20475;-84
2022/05/10 03:52:16;;;;;;;14.05;12.65;;;;;;;16.69;68.78;101802.09;4910318;29;20059;-85
2022/05/10 03:54:44;;;;;;;16.58;12.57;;;;;;;16.34;68.61;101750.03;4908580;29;20063;-83
2022/05/10 03:57:11;;;;;;;14.35;12.98;;;;;;;16.39;68.83;101761.16;4924162;29;20414;-83
2022/05/10 03:59:41;;;;;;;15.38;12.32;;;;;;;16.36;68.55;101757.91;4925727;29;20067;-82
2022/05/10 04:02:13;;;;;;;14.55;12.40;;;;;;;16.67;68.19;101812.13;4919900;29;20100;-84
2022/05/10 04:04:40;;;;;;;13.40;12.00;;;;;;;16.59;68.63;101803.97;4936254;29;20083;-83
2022/05/10 04:07:08;;;;;;;12.70;11.45;;;;;;;16.25;68.45;101753.59;4917990;29;20052;-83
2022/05/10 04:09:35;;;;;;;17.30;12.25;;;;;;;15.88;68.13;101690.13;4928340;29;20056;-83
2022/05/10 04:12:03;;;;;;;14.70;13.20;;;;;;;16.70;68.35;101822.56;4910622;29;20335;-84
2022/05/10 04:14:30;;;;;;;13.63;12.18;;;;;;;15.98;67.94;101700.81;4908453;29;20052;-84
2022/05/10 04:16:57;;;;;;;28.90;22.30;;;;;;;16.33;67.34;101747.50;4923864;29;20164;-83
2022/05/10 04:19:24;;;;;;;15.68;12.30;;;;;;;16.61;66.99;101793.97;4910262;29;20048;-84
2022/05/10 04:21:51;;;;;;;13.50;12.10;;;;;;;16.44;67.48;101780.31;4909585;29;20170;-83
2022/05/10 04:24:18;;;;;;;17.80;12.63;;;;;;;16.53;67.43;101785.78;4908000;29;20056;-83
2022/05/10 04:26:47;;;;;;;18.05;12.73;;;;;;;16.82;67.61;101839.34;4908455;29;20052;-83
2022/05/10 04:29:17;;;;;;;14.55;12.40;;;;;;;16.43;67.26;101770.59;4909255;29;20611;-83
2022/05/10 04:31:44;;;;;;;13.02;11.82;;;;;;;16.58;67.87;101802.31;4908303;29;20052;-84
2022/05/10 04:34:10;;;;;;;13.50;12.02;;;;;;;16.61;67.84;101805.53;4908166;29;20497;-84
2022/05/10 04:36:38;;;;;;;17.20;12.68;;;;;;;16.75;68.17;101822.09;4909437;29;20139;-82
2022/05/10 04:39:04;;;;;;;15.05;13.65;;;;;;;16.39;67.44;101750.44;4909600;29;20052;-84
2022/05/10 04:41:35;;;;;;;17.95;12.50;;;;;;;16.68;67.53;101803.09;4908641;29;20147;-84
2022/05/10 04:44:07;;;;;;;16.17;12.95;;;;;;;16.77;67.55;101823.69;4912561;29;20056;-84
2022/05/10 04:46:38;;;;;;;12.95;11.55;;;;;;;16.82;67.57;101826.78;4912166;29;20142;-83
2022/05/10 04:49:07;;;;;;;13.43;12.05;;;;;;;16.79;67.65;101819.03;4911940;29;20067;-82
2022/05/10 04:51:35;;;;;;;14.00;12.45;;;;;;;16.80;68.18;101826.09;4911684;29;20054;-81
2022/05/10 04:54:02;;;;;;;13.45;12.10;;;;;;;17.03;68.22;101858.72;4927885;29;20391;-81
2022/05/10 04:56:29;;;;;;;14.90;12.30;;;;;;;16.94;67.03;101832.78;4913206;29;20062;-82
2022/05/10 04:58:56;;;;;;;15.57;13.40;;;;;;;17.14;66.66;101855.03;4923077;29;20044;-82
2022/05/10 05:01:26;;;;;;;16.52;12.88;;;;;;;17.23;67.21;101864.88;4945913;29;20063;-83
2022/05/10 05:03:59;;;;;;;14.93;13.33;;;;;;;17.19;67.81;101858.09;4945460;28;20055;-81
2022/05/10 05:06:28;;;;;;;21.73;19.40;;;;;;;17.25;67.81;101864.69;4930091;29;20062;-82
2022/05/10 05:08:56;;;;;;;15.00;13.43;;;;;;;17.28;67.81;101862.56;4945707;28;20314;-83
2022/05/10 05:11:27;;;;;;;14.38;12.30;;;;;;;17.09;67.35;101833.16;4946087;29;20733;-84
2022/05/10 05:13:54;;;;;;;15.50;12.93;;;;;;;16.91;67.29;101787.50;4946234;29;20150;-83
2022/05/10 05:16:21;;;;;;;14.20;12.25;;;;;;;17.17;66.00;101825.19;4918929;29;20060;-83
2022/05/10 05:18:49;;;;;;;13.80;12.38;;;;;;;17.45;66.47;101879.72;4910286;29;20067;-83
2022/05/10 05:21:16;;;;;;;15.52;12.07;;;;;;;16.13;66.92;101653.78;4909958;29;20545;-83
2022/05/10 05:23:44;;;;;;;16.30;13.40;;;;;;;16.55;66.79;101708.75;4926072;29;20063;-83
2022/05/10 05:26:11;;;;;;;14.27;11.93;;;;;;;17.62;66.65;101872.69;4910124;29;20220;-82
2022/05/10 05:28:38;;;;;;;17.92;12.80;;;;;;;17.63;67.00;101881.56;4911016;29;20421;-81
2022/05/10 05:31:06;;;;;;;16.83;13.07;;;;;;;17.56;66.75;101864.38;4909725;29;20415;-82
2022/05/10 05:33:33;;;;;;;14.65;13.15;;;;;;;17.66;66.15;101876.72;4925323;29;20680;-82
2022/05/10 05:35:59;;;;;;;16.08;12.48;;;;;;;17.78;65.96;101892.63;4925417;29;20204;-82
2022/05/10 05:38:27;;;;;;;14.40;12.00;;;;;;;17.86;65.62;101888.22;4925666;29;20138;-82
2022/05/10 05:40:54;;;;;;;14.05;12.57;;;;;;;17.64;65.01;101837.59;4925903;29;20052;-84
2022/05/10 05:43:22;;;;;;;16.17;13.23;;;;;;;18.08;65.21;101883.38;4909955;29;20059;-83
2022/05/10 05:45:50;;;;;;;17.55;12.85;;;;;;;18.01;64.84;101867.06;4925682;29;20155;-82
2022/05/10 05:48:18;;;;;;;17.30;12.75;;;;;;;17.75;64.14;101812.38;4911327;29;20087;-82
2022/05/10 05:50:45;;;;;;;16.30;11.15;;;;;;;18.08;64.63;101857.38;4909783;29;20052;-80
2022/05/10 05:53:14;;;;;;;15.60;12.60;;;;;;;17.68;63.95;101783.44;4910871;29;20388;-82
2022/05/10 05:55:42;;;;;;;13.32;12.02;;;;;;;18.34;63.83;101878.06;4923705;29;20059;-82
2022/05/10 05:58:10;;;;;;;14.07;12.48;;;;;;;18.42;63.58;101885.31;4944382;29;20052;-82
2022/05/10 06:00:38;;;;;;;13.27;11.98;;;;;;;18.40;63.47;101869.38;4944183;29;20514;-83
2022/05/10 06:03:05;;;;;;;14.10;12.23;;;;;;;18.32;62.45;101845.09;4943821;28;20062;-83
2022/05/10 06:05:33;;;;;;;14.07;12.45;;;;;;;18.66;62.30;101890.03;4928528;29;20055;-82
2022/05/10 06:08:02;;;;;;;13.05;11.75;;;;;;;18.74;61.86;101903.56;4912172;29;20075;-82
2022/05/10 06:10:29;;;;;;;14.60;11.93;;;;;;;18.59;61.66;101862.94;4908095;29;20148;-83
2022/05/10 06:13:00;;;;;;;15.73;11.75;;;;;;;18.90;61.84;101909.03;4907910;29;20085;-82
2022/05/10 06:15:28;;;;;;;11.98;10.77;;;;;;;18.99;61.72;101907.25;4918323;29;20056;-83
2022/05/10 06:17:56;;;;;;;14.38;11.90;;;;;;;18.12;61.20;101766.53;4907825;29;20048;-83
2022/05/10 06:20:24;;;;;;;11.35;10.13;;;;;;;19.08;61.25;101918.88;4908232;29;20062;-82
2022/05/10 06:22:51;;;;;;;13.30;11.50;;;;;;;19.07;60.61;101911.84;4909196;29;20056;-82
2022/05/10 06:25:20;;;;;;;14.65;10.68;;;;;;;18.81;61.20;101856.19;4907643;29;20056;-83
2022/05/10 06:27:48;;;;;;;14.88;11.68;;;;;;;19.05;60.33;101886.94;4907582;29;20060;-82
2022/05/10 06:30:16;;;;;;;14.75;10.88;;;;;;;19.11;60.35;101897.06;4907980;29;20569;-83
2022/05/10 06:32:43;;;;;;;14.93;11.30;;;;;;;19.34;59.88;101927.75;4930864;29;20048;-83
2022/05/10 06:35:10;;;;;;;12.95;11.55;;;;;;;19.37;60.21;101930.16;4907493;29;20159;-80
2022/05/10 06:38:16;;;;;;;16.50;11.43;;;;;;;19.19;60.12;101881.78;4909081;29;20066;-81
2022/05/10 06:40:35;;;;;;;12.75;11.45;;;;;;;19.53;59.06;101920.44;4910717;29;20508;-81
2022/05/10 06:43:03;;;;;;;16.48;11.32;;;;;;;19.09;59.39;101853.31;4909410;29;20048;-82
2022/05/10 06:45:29;;;;;;;14.70;11.25;;;;;;;19.42;59.64;101903.59;4910482;29;20051;-82
2022/05/10 06:47:56;;;;;;;13.25;11.93;;;;;;;19.24;60.03;101875.06;4910699;29;20052;-82
2022/05/10 06:50:25;;;;;;;15.73;11.90;;;;;;;19.59;59.21;101917.94;4911026;29;20064;-83
2022/05/10 06:52:57;;;;;;;14.50;12.40;;;;;;;19.79;58.87;101925.78;4918924;29;20048;-84
2022/05/10 06:55:29;;;;;;;18.35;12.15;;;;;;;19.60;58.57;101890.00;4925760;29;20051;-84
2022/05/10 06:57:56;;;;;;;20.35;12.23;;;;;;;19.49;57.59;101857.13;4906372;29;20127;-82
2022/05/10 07:00:31;;;;;;;14.52;12.90;;;;;;;19.84;56.88;101905.41;4909962;29;20055;-82
2022/05/10 07:02:58;;;;;;;13.18;11.80;;;;;;;19.88;57.23;101907.75;4908360;29;20048;-82
2022/05/10 07:05:25;;;;;;;15.70;11.93;;;;;;;19.57;57.86;101867.94;4910332;29;20048;-82
2022/05/10 07:07:52;;;;;;;14.32;12.05;;;;;;;20.00;57.46;101919.91;4912997;29;20483;-81
2022/05/10 07:10:19;;;;;;;13.25;11.82;;;;;;;19.81;57.08;101886.03;4910631;29;20566;-81
2022/05/10 07:12:46;;;;;;;18.38;14.10;;;;;;;20.11;57.09;101919.59;4909069;29;20056;-82
2022/05/10 07:15:17;;;;;;;14.55;13.18;;;;;;;19.40;57.33;101797.88;4908954;29;20200;-82
2022/05/10 07:17:45;;;;;;;15.27;13.75;;;;;;;19.71;56.67;101837.69;4907895;29;20056;-82
2022/05/10 07:20:14;;;;;;;14.48;12.65;;;;;;;19.59;56.96;101822.84;4908774;29;20040;-82
2022/05/10 07:22:41;;;;;;;17.27;13.48;;;;;;;19.91;57.01;101875.09;4907803;29;20146;-82
2022/05/10 07:25:12;;;;;;;13.98;12.30;;;;;;;19.98;57.24;101895.00;4907462;29;20094;-83
2022/05/10 07:27:39;;;;;;;14.33;12.93;;;;;;;20.08;57.27;101889.44;4906248;29;20499;-82
2022/05/10 07:30:06;;;;;;;20.80;14.50;;;;;;;20.35;56.67;101904.44;4908644;29;20684;-82
2022/05/10 07:32:33;;;;;;;21.90;13.23;;;;;;;20.17;56.28;101864.16;4909178;29;20060;-82
2022/05/10 07:35:02;;;;;;;17.63;12.98;;;;;;;19.91;57.40;101842.78;4908713;29;20423;-82
2022/05/10 07:37:30;;;;;;;15.93;13.82;;;;;;;20.38;57.31;101910.31;4910325;29;20064;-83
2022/05/10 07:40:03;;;;;;;14.98;12.95;;;;;;;20.48;56.55;101920.94;4909085;29;20299;-83
2022/05/10 07:42:30;;;;;;;14.73;13.10;;;;;;;20.03;56.83;101842.25;4908979;29;20049;-83
2022/05/10 07:44:57;;;;;;;12.90;11.63;;;;;;;19.10;57.86;101696.19;4908709;29;20722;-83
2022/05/10 07:47:24;;;;;;;16.50;12.38;;;;;;;19.82;58.46;101818.50;4909971;29;20063;-83
2022/05/10 07:49:51;;;;;;;19.90;11.57;;;;;;;20.31;58.28;101870.72;4909102;29;20080;-82
2022/05/10 07:52:18;;;;;;;20.77;11.70;;;;;;;20.43;58.63;101890.94;4909946;29;20051;-83
2022/05/10 07:54:44;;;;;;;16.88;12.45;;;;;;;20.68;58.14;101899.84;4924339;29;20578;-83
2022/05/10 07:57:19;;;;;;;13.65;12.20;;;;;;;20.54;57.34;101850.13;4908831;29;20074;-84
2022/05/10 07:59:45;;;;;;;14.55;12.93;;;;;;;20.76;57.46;101890.94;4911956;29;20055;-83
2022/05/10 08:02:16;;;;;;;15.55;13.82;;;;;;;20.51;57.97;101850.47;4938251;28;20055;-83
2022/05/10 08:04:43;;;;;;;14.45;12.90;;;;;;;20.89;56.87;101891.22;4942078;29;20062;-83
2022/05/10 08:07:09;;;;;;;14.13;12.70;;;;;;;20.91;56.90;101883.78;4940277;29;20106;-83
2022/05/10 08:09:36;;;;;;;16.65;13.18;;;;;;;21.00;56.02;101871.97;4953827;28;20466;-83
2022/05/10 08:12:03;;;;;;;13.85;12.50;;;;;;;20.36;56.47;101760.47;4944073;29;20047;-83
2022/05/10 08:14:30;;;;;;;16.30;13.43;;;;;;;20.04;56.56;101729.88;4946259;28;20052;-83
2022/05/10 08:16:57;;;;;;;16.50;11.57;;;;;;;21.07;56.23;101889.16;4928610;29;20043;-84
2022/05/10 08:19:25;;;;;;;13.55;12.25;;;;;;;19.83;56.33;101669.31;4932239;28;20275;-84
2022/05/10 08:21:55;;;;;;;17.75;12.13;;;;;;;21.21;55.64;101886.72;4946816;28;20059;-83
2022/05/10 08:24:23;;;;;;;13.40;11.98;;;;;;;21.27;55.67;101883.31;4946496;28;20056;-84
2022/05/10 08:26:52;;;;;;;14.15;12.70;;;;;;;21.21;56.56;101865.94;4930834;29;20167;-83
2022/05/10 08:29:19;;;;;;;14.45;11.88;;;;;;;20.06;56.23;101674.78;4932757;28;20066;-83
2022/05/10 08:31:47;;;;;;;15.02;11.85;;;;;;;21.10;56.33;101823.97;4945727;28;20094;-85
2022/05/10 08:34:19;;;;;;;20.20;11.50;;;;;;;20.48;56.02;101715.94;4931678;29;20592;-83
2022/05/10 08:36:51;;;;;;;17.48;11.98;;;;;;;20.87;55.17;101745.63;4946097;28;20055;-83
2022/05/10 08:39:18;;;;;;;13.88;11.65;;;;;;;21.65;54.76;101841.09;4946567;29;20062;-83
2022/05/10 08:41:55;;;;;;;12.18;10.90;;;;;;;21.84;54.13;101853.28;4932201;28;20061;-82
2022/05/10 08:44:28;;;;;;;12.85;10.10;;;;;;;21.93;53.91;101868.41;4946108;29;20048;-83
2022/05/10 08:47:06;;;;;;;12.57;10.27;;;;;;;21.93;54.17;101863.00;4946627;29;20059;-84
2022/05/10 08:49:41;;;;;;;13.07;11.13;;;;;;;22.02;54.34;101871.06;4946695;28;20490;-82
2022/05/10 08:52:08;;;;;;;12.50;9.82;;;;;;;22.02;54.13;101865.66;4942940;28;20131;-82
2022/05/10 08:54:39;;;;;;;11.70;9.35;;;;;;;21.71;54.19;101794.41;4912651;29;20086;-83
2022/05/10 08:57:08;;;;;;;14.15;10.85;;;;;;;21.97;53.41;101810.25;4911558;29;20063;-82
2022/05/10 08:59:50;;;;;;;13.88;10.80;;;;;;;22.32;53.42;101870.16;4927391;29;20060;-82
2022/05/10 09:02:26;;;;;;;15.30;10.07;;;;;;;22.29;53.34;101851.59;4912519;29;20059;-82
2022/05/10 09:05:05;;;;;;;10.73;9.63;;;;;;;22.39;51.50;101854.88;4912433;29;20056;-83
2022/05/10 09:07:54;;;;;;;13.10;10.63;;;;;;;22.57;52.12;101880.72;4912445;29;20138;-83
2022/05/10 09:10:50;;;;;;;14.85;9.90;;;;;;;22.60;52.34;101874.97;4927009;29;20056;-82
2022/05/10 09:13:19;;;;;;;15.15;10.43;;;;;;;22.65;52.29;101875.25;4912689;29;20490;-83
2022/05/10 09:16:03;;;;;;;10.35;9.30;;;;;;;22.66;52.12;101871.50;4926929;29;20056;-82
2022/05/10 09:18:39;;;;;;;13.05;10.35;;;;;;;22.77;51.56;101860.22;4912023;29;20316;-83
2022/05/10 09:21:11;;;;;;;10.88;9.77;;;;;;;22.74;51.98;101846.22;4928008;29;20056;-82
2022/05/10 09:23:45;;;;;;;16.20;10.05;;;;;;;22.95;51.24;101864.41;4928245;29;20142;-83
2022/05/10 09:26:13;;;;;;;11.02;9.07;;;;;;;23.11;49.94;101858.84;4911559;29;20344;-84
2022/05/10 09:28:48;;;;;;;13.13;10.50;;;;;;;23.00;49.86;101826.81;4926099;29;20414;-83
2022/05/10 09:34:48;;;;;;;13.40;8.88;;;;;;;23.21;49.84;101835.00;4911924;29;20067;-84
2022/05/10 09:37:26;;;;;;;10.50;9.43;;;;;;;23.57;49.63;101854.97;4910824;29;20060;-83
2022/05/10 09:39:55;;;;;;;13.23;8.80;;;;;;;23.66;49.91;101859.25;4926565;29;20186;-82
2022/05/10 09:42:32;;;;;;;18.40;9.25;;;;;;;22.44;49.03;101642.44;4911584;29;20124;-83
2022/05/10 09:45:08;;;;;;;10.02;8.82;;;;;;;23.84;49.62;101846.13;4911218;29;20059;-81
2022/05/10 09:47:34;;;;;;;16.48;9.18;;;;;;;23.55;49.21;101767.63;4927607;29;20627;-82
2022/05/10 09:50:12;;;;;;;9.23;8.25;;;;;;;24.25;47.62;101858.16;4914485;29;20040;-83
2022/05/10 09:52:39;;;;;;;9.30;8.23;;;;;;;24.25;48.00;101848.16;4929231;29;20212;-83
2022/05/10 09:55:09;;;;;;;8.40;7.60;;;;;;;24.17;47.04;101810.28;4927159;29;20048;-83
2022/05/10 09:57:39;;;;;;;11.27;9.05;;;;;;;24.05;46.64;101771.19;4927822;29;20063;-83
2022/05/10 10:00:15;;;;;;;14.80;8.48;;;;;;;24.23;46.54;101795.13;4914351;29;20198;-83
2022/05/10 10:02:43;;;;;;;9.25;8.20;;;;;;;24.48;46.56;101820.78;4926300;29;20043;-83
2022/05/10 10:05:31;;;;;;;11.65;8.18;;;;;;;24.85;44.86;101839.56;4909920;29;20063;-82
2022/05/10 10:08:00;;;;;;;9.20;8.30;;;;;;;24.93;45.48;101826.69;4914482;29;20066;-82
2022/05/10 10:10:32;;;;;;;13.05;7.43;;;;;;;25.09;44.81;101841.78;4926797;29;20071;-84
2022/05/10 10:13:18;;;;;;;;;;;;;;;25.26;43.63;101839.56;4911852;29;20048;-84
2022/05/10 10:15:45;;;;;;;10.73;6.78;;;;;;;25.18;43.60;101809.03;4910197;29;19971;-83
2022/05/10 10:18:46;;;;;;;8.43;7.65;;;;;;;24.98;43.41;101738.28;4910365;29;20110;-83
2022/05/10 10:21:18;;;;;;;9.30;7.28;;;;;;;25.68;43.44;101834.88;4910808;29;20093;-83
2022/05/10 10:23:53;;;;;;;12.27;7.55;;;;;;;25.82;42.40;101827.56;4922016;29;20051;-85
2022/05/10 10:26:37;;;;;;;10.95;7.68;;;;;;;25.55;42.30;101764.16;4944128;29;20111;-83
2022/05/10 10:29:13;;;;;;;11.25;8.75;;;;;;;25.44;42.86;101732.13;4944292;29;20345;-83
2022/05/10 10:31:48;;;;;;;9.15;8.35;;;;;;;26.08;43.56;101818.59;4929622;28;20059;-83
2022/05/10 10:34:24;;;;;;;9.90;8.85;;;;;;;26.21;43.30;101806.84;4943641;29;20450;-83
2022/05/10 10:37:18;;;;;;;10.05;8.77;;;;;;;26.05;43.49;101783.66;4944457;29;20056;-82
2022/05/10 10:40:10;;;;;;;10.82;9.40;;;;;;;26.38;42.98;101812.69;4928101;29;20055;-84
2022/05/10 10:42:50;;;;;;;9.73;8.70;;;;;;;26.43;42.75;101815.63;4925546;29;20193;-84
2022/05/10 10:45:18;;;;;;;14.32;9.02;;;;;;;25.45;42.67;101597.91;4921197;29;20087;-83
2022/05/10 10:48:03;;;;;;;8.90;8.10;;;;;;;26.79;42.91;101809.69;4928695;29;20142;-84
2022/05/10 10:50:33;;;;;;;11.73;8.20;;;;;;;26.90;42.65;101770.06;4944358;29;20047;-84
2022/05/10 10:53:01;;;;;;;9.43;8.10;;;;;;;26.04;41.73;101620.59;4929547;28;20235;-84
2022/05/10 10:55:43;;;;;;;8.02;7.20;;;;;;;26.84;40.75;101738.22;4924221;29;21815;-83
2022/05/10 10:58:43;;;;;;;9.60;8.02;;;;;;;27.25;40.96;101799.66;4922922;29;20115;-84
2022/05/10 11:01:30;;;;;;;9.05;8.23;;;;;;;27.00;41.20;101737.72;4907439;29;20059;-82
2022/05/10 11:04:25;;;;;;;9.05;8.15;;;;;;;27.65;40.74;101791.22;4922537;29;20434;-84
2022/05/10 11:06:56;;;;;;;11.38;7.07;;;;;;;26.90;40.91;101661.06;4908259;29;20115;-81
2022/05/10 11:09:42;;;;;;;9.63;7.90;;;;;;;27.79;39.64;101789.22;4907823;29;20084;-83
2022/05/10 11:12:27;;;;;;;16.33;7.65;;;;;;;26.84;39.43;101640.13;4909532;29;20594;-83
2022/05/10 11:14:54;;;;;;;11.63;8.85;;;;;;;27.92;38.92;101779.06;4909392;29;20052;-83
2022/05/10 11:17:38;;;;;;;12.07;8.02;;;;;;;27.90;39.32;101781.19;4910153;29;20135;-81
2022/05/10 11:20:51;;;;;;;13.95;8.07;;;;;;;27.85;39.05;101785.66;5102001;27;20540;-83
2022/05/10 11:23:31;;;;;;;11.82;6.78;;;;;;;28.06;38.34;101778.94;5102485;28;20059;-84
2022/05/10 11:26:11;;;;;;;8.70;6.90;;;;;;;28.24;38.14;101780.88;5101813;28;20424;-82
2022/05/10 11:29:16;;;;;;;11.05;6.75;;;;;;;28.66;37.20;101783.78;5102382;28;20052;-83
2022/05/10 11:31:55;;;;;;;11.68;6.68;;;;;;;28.49;36.78;101759.81;5104062;28;20054;-82
2022/05/10 11:34:50;;;;;;;7.45;6.68;;;;;;;28.77;37.24;101770.19;5101771;28;20104;-81
2022/05/10 11:37:26;;;;;;;7.65;6.90;;;;;;;28.92;34.75;101744.38;5103880;28;20101;-84
2022/05/10 11:40:35;;;;;;;11.48;6.78;;;;;;;28.98;34.82;101760.69;5102218;28;20516;-83
2022/05/10 11:43:01;;;;;;;8.20;6.07;;;;;;;29.09;36.12;101753.63;5094426;28;20056;-82
2022/05/10 11:46:04;;;;;;;6.93;6.32;;;;;;;29.33;35.74;101756.44;5104053;28;20400;-81
2022/05/10 11:49:03;;;;;;;8.27;6.93;;;;;;;29.57;35.36;101758.16;5106531;28;20078;-82